sensor_id;sensor_type;location;lat;lon;timestamp;P1;durP1;ratioP1;P2;durP2;ratioP2
19645;SDS011;9971;52.446;13.452;2023-08-08T00:03:24;3.25;;;1.80;;
19645;SDS011;9971;52.446;13.452;2023-08-08T00:08:27;2.55;;;2.20;;
19645;SDS011;9971;52.446;13.452;2023-08-08T00:13:30;3.33;;;1.80;;
19645;SDS011;9971;52.446;13.452;2023-08-08T00:18:32;3.13;;;2.80;;
19645;SDS011;9971;52.446;13.452;2023-08-08T00:23:35;2.62;;;2.05;;
19645;SDS011;9971;52.446;13.452;2023-08-08T00:28:37;2.50;;;2.10;;
19645;SDS011;9971;52.446;13.452;2023-08-08T00:33:39;3.37;;;1.82;;
19645;SDS011;9971;52.446;13.452;2023-08-08T00:38:42;3.58;;;1.82;;
19645;SDS011;9971;52.446;13.452;2023-08-08T00:43:44;2.62;;;2.02;;
19645;SDS011;9971;52.446;13.452;2023-08-08T00:48:47;4.75;;;2.52;;
19645;SDS011;9971;52.446;13.452;2023-08-08T00:53:49;3.52;;;1.75;;
19645;SDS011;9971;52.446;13.452;2023-08-08T00:58:52;2.77;;;1.95;;
19645;SDS011;9971;52.446;13.452;2023-08-08T01:03:54;2.10;;;1.70;;
19645;SDS011;9971;52.446;13.452;2023-08-08T01:08:59;2.57;;;2.00;;
19645;SDS011;9971;52.446;13.452;2023-08-08T01:13:59;4.05;;;2.33;;
19645;SDS011;9971;52.446;13.452;2023-08-08T01:19:02;2.12;;;1.90;;
19645;SDS011;9971;52.446;13.452;2023-08-08T01:29:15;2.63;;;1.90;;
19645;SDS011;9971;52.446;13.452;2023-08-08T01:34:18;2.77;;;2.17;;
19645;SDS011;9971;52.446;13.452;2023-08-08T01:39:22;3.77;;;2.15;;
19645;SDS011;9971;52.446;13.452;2023-08-08T01:44:22;3.33;;;2.03;;
19645;SDS011;9971;52.446;13.452;2023-08-08T01:49:24;2.27;;;2.03;;
19645;SDS011;9971;52.446;13.452;2023-08-08T01:54:28;2.37;;;2.17;;
19645;SDS011;9971;52.446;13.452;2023-08-08T01:59:30;2.15;;;1.80;;
19645;SDS011;9971;52.446;13.452;2023-08-08T02:04:33;2.17;;;1.50;;
19645;SDS011;9971;52.446;13.452;2023-08-08T02:09:35;2.15;;;1.85;;
19645;SDS011;9971;52.446;13.452;2023-08-08T02:14:37;4.40;;;2.10;;
19645;SDS011;9971;52.446;13.452;2023-08-08T02:19:40;2.62;;;2.30;;
19645;SDS011;9971;52.446;13.452;2023-08-08T02:24:42;3.08;;;1.90;;
19645;SDS011;9971;52.446;13.452;2023-08-08T02:29:46;2.27;;;1.72;;
19645;SDS011;9971;52.446;13.452;2023-08-08T02:34:48;3.10;;;2.35;;
19645;SDS011;9971;52.446;13.452;2023-08-08T02:39:50;3.57;;;2.27;;
19645;SDS011;9971;52.446;13.452;2023-08-08T02:44:53;3.00;;;1.70;;
19645;SDS011;9971;52.446;13.452;2023-08-08T02:49:55;2.25;;;2.00;;
19645;SDS011;9971;52.446;13.452;2023-08-08T02:54:58;3.00;;;1.95;;
19645;SDS011;9971;52.446;13.452;2023-08-08T03:00:00;2.42;;;1.65;;
19645;SDS011;9971;52.446;13.452;2023-08-08T03:05:03;2.93;;;2.40;;
19645;SDS011;9971;52.446;13.452;2023-08-08T03:10:05;3.80;;;2.17;;
19645;SDS011;9971;52.446;13.452;2023-08-08T03:15:08;3.58;;;1.92;;
19645;SDS011;9971;52.446;13.452;2023-08-08T03:20:11;3.77;;;2.20;;
19645;SDS011;9971;52.446;13.452;2023-08-08T03:25:13;3.27;;;2.60;;
19645;SDS011;9971;52.446;13.452;2023-08-08T03:30:16;2.65;;;1.87;;
19645;SDS011;9971;52.446;13.452;2023-08-08T03:35:19;2.22;;;2.02;;
19645;SDS011;9971;52.446;13.452;2023-08-08T03:40:21;2.05;;;1.72;;
19645;SDS011;9971;52.446;13.452;2023-08-08T03:50:32;2.93;;;2.43;;
19645;SDS011;9971;52.446;13.452;2023-08-08T03:55:36;3.73;;;2.80;;
19645;SDS011;9971;52.446;13.452;2023-08-08T04:00:38;2.42;;;1.90;;
19645;SDS011;9971;52.446;13.452;2023-08-08T04:05:41;3.00;;;2.00;;
19645;SDS011;9971;52.446;13.452;2023-08-08T04:10:46;2.50;;;2.30;;
19645;SDS011;9971;52.446;13.452;2023-08-08T04:15:47;3.30;;;1.87;;
19645;SDS011;9971;52.446;13.452;2023-08-08T04:20:50;2.75;;;2.33;;
19645;SDS011;9971;52.446;13.452;2023-08-08T04:25:52;2.40;;;2.20;;
19645;SDS011;9971;52.446;13.452;2023-08-08T04:30:54;2.47;;;1.77;;
19645;SDS011;9971;52.446;13.452;2023-08-08T04:35:58;3.47;;;2.00;;
19645;SDS011;9971;52.446;13.452;2023-08-08T04:41:06;3.33;;;1.77;;
19645;SDS011;9971;52.446;13.452;2023-08-08T04:46:19;3.27;;;2.13;;
19645;SDS011;9971;52.446;13.452;2023-08-08T04:51:32;3.53;;;2.13;;
19645;SDS011;9971;52.446;13.452;2023-08-08T04:56:44;1.87;;;1.77;;
19645;SDS011;9971;52.446;13.452;2023-08-08T05:01:56;2.60;;;1.60;;
19645;SDS011;9971;52.446;13.452;2023-08-08T05:07:01;1.77;;;1.60;;
19645;SDS011;9971;52.446;13.452;2023-08-08T05:12:07;2.63;;;1.60;;
19645;SDS011;9971;52.446;13.452;2023-08-08T05:17:12;2.73;;;1.93;;
19645;SDS011;9971;52.446;13.452;2023-08-08T05:22:27;1.90;;;1.67;;
19645;SDS011;9971;52.446;13.452;2023-08-08T05:27:32;2.97;;;1.77;;
19645;SDS011;9971;52.446;13.452;2023-08-08T05:32:39;3.37;;;1.93;;
19645;SDS011;9971;52.446;13.452;2023-08-08T05:37:47;2.63;;;1.60;;
19645;SDS011;9971;52.446;13.452;2023-08-08T06:04:23;2.17;;;1.57;;
19645;SDS011;9971;52.446;13.452;2023-08-08T06:09:36;2.50;;;1.50;;
19645;SDS011;9971;52.446;13.452;2023-08-08T06:14:40;1.93;;;1.53;;
19645;SDS011;9971;52.446;13.452;2023-08-08T06:19:46;1.55;;;1.45;;
19645;SDS011;9971;52.446;13.452;2023-08-08T06:25:01;2.10;;;1.60;;
19645;SDS011;9971;52.446;13.452;2023-08-08T06:30:10;4.13;;;1.80;;
19645;SDS011;9971;52.446;13.452;2023-08-08T06:35:15;1.50;;;1.40;;
19645;SDS011;9971;52.446;13.452;2023-08-08T06:40:18;1.87;;;1.40;;
19645;SDS011;9971;52.446;13.452;2023-08-08T06:45:22;3.73;;;2.03;;
19645;SDS011;9971;52.446;13.452;2023-08-08T06:50:24;1.57;;;1.43;;
19645;SDS011;9971;52.446;13.452;2023-08-08T06:55:29;2.83;;;1.85;;
19645;SDS011;9971;52.446;13.452;2023-08-08T07:00:33;2.03;;;1.63;;
19645;SDS011;9971;52.446;13.452;2023-08-08T07:05:41;2.13;;;1.77;;
19645;SDS011;9971;52.446;13.452;2023-08-08T07:10:47;1.87;;;1.37;;
19645;SDS011;9971;52.446;13.452;2023-08-08T07:15:53;1.77;;;1.45;;
19645;SDS011;9971;52.446;13.452;2023-08-08T07:20:56;2.33;;;1.77;;
19645;SDS011;9971;52.446;13.452;2023-08-08T07:26:00;3.57;;;1.67;;
19645;SDS011;9971;52.446;13.452;2023-08-08T07:31:08;2.10;;;1.70;;
19645;SDS011;9971;52.446;13.452;2023-08-08T07:36:11;2.20;;;1.70;;
19645;SDS011;9971;52.446;13.452;2023-08-08T07:41:13;1.60;;;1.50;;
19645;SDS011;9971;52.446;13.452;2023-08-08T07:46:16;1.60;;;1.50;;
19645;SDS011;9971;52.446;13.452;2023-08-08T07:51:18;2.47;;;1.50;;
19645;SDS011;9971;52.446;13.452;2023-08-08T07:56:21;3.62;;;1.72;;
19645;SDS011;9971;52.446;13.452;2023-08-08T08:01:23;2.77;;;1.83;;
19645;SDS011;9971;52.446;13.452;2023-08-08T08:06:25;3.25;;;1.47;;
19645;SDS011;9971;52.446;13.452;2023-08-08T08:11:28;1.80;;;1.40;;
19645;SDS011;9971;52.446;13.452;2023-08-08T08:16:30;4.78;;;1.70;;
19645;SDS011;9971;52.446;13.452;2023-08-08T08:21:32;1.63;;;1.53;;
19645;SDS011;9971;52.446;13.452;2023-08-08T08:26:35;1.30;;;1.20;;
19645;SDS011;9971;52.446;13.452;2023-08-08T08:31:37;2.42;;;1.57;;
19645;SDS011;9971;52.446;13.452;2023-08-08T08:36:40;1.20;;;1.10;;
19645;SDS011;9971;52.446;13.452;2023-08-08T08:41:42;1.75;;;1.60;;
19645;SDS011;9971;52.446;13.452;2023-08-08T08:46:44;1.87;;;1.50;;
19645;SDS011;9971;52.446;13.452;2023-08-08T08:51:46;1.93;;;1.53;;
19645;SDS011;9971;52.446;13.452;2023-08-08T08:56:48;1.77;;;1.30;;
19645;SDS011;9971;52.446;13.452;2023-08-08T09:01:51;1.87;;;1.50;;
19645;SDS011;9971;52.446;13.452;2023-08-08T09:06:52;1.47;;;1.30;;
19645;SDS011;9971;52.446;13.452;2023-08-08T09:11:54;3.00;;;1.50;;
19645;SDS011;9971;52.446;13.452;2023-08-08T09:16:57;2.85;;;1.52;;
19645;SDS011;9971;52.446;13.452;2023-08-08T09:21:59;2.20;;;1.50;;
19645;SDS011;9971;52.446;13.452;2023-08-08T09:27:01;5.00;;;1.50;;
19645;SDS011;9971;52.446;13.452;2023-08-08T09:32:05;1.92;;;1.30;;
19645;SDS011;9971;52.446;13.452;2023-08-08T09:37:08;2.47;;;1.40;;
19645;SDS011;9971;52.446;13.452;2023-08-08T09:42:10;1.67;;;1.07;;
19645;SDS011;9971;52.446;13.452;2023-08-08T09:47:13;1.65;;;1.17;;
19645;SDS011;9971;52.446;13.452;2023-08-08T09:52:15;1.77;;;1.27;;
19645;SDS011;9971;52.446;13.452;2023-08-08T09:57:17;1.40;;;1.30;;
19645;SDS011;9971;52.446;13.452;2023-08-08T10:02:19;1.30;;;1.20;;
19645;SDS011;9971;52.446;13.452;2023-08-08T10:07:21;2.80;;;1.50;;
19645;SDS011;9971;52.446;13.452;2023-08-08T10:12:24;1.50;;;1.40;;
19645;SDS011;9971;52.446;13.452;2023-08-08T10:17:26;2.60;;;1.40;;
19645;SDS011;9971;52.446;13.452;2023-08-08T10:22:28;1.27;;;1.17;;
19645;SDS011;9971;52.446;13.452;2023-08-08T10:27:34;1.90;;;1.40;;
19645;SDS011;9971;52.446;13.452;2023-08-08T10:32:39;1.67;;;1.37;;
19645;SDS011;9971;52.446;13.452;2023-08-08T10:37:40;1.57;;;1.43;;
19645;SDS011;9971;52.446;13.452;2023-08-08T10:42:43;1.50;;;1.40;;
19645;SDS011;9971;52.446;13.452;2023-08-08T10:47:44;1.33;;;1.10;;
19645;SDS011;9971;52.446;13.452;2023-08-08T10:52:51;1.67;;;1.22;;
19645;SDS011;9971;52.446;13.452;2023-08-08T10:57:54;2.40;;;1.47;;
19645;SDS011;9971;52.446;13.452;2023-08-08T11:02:56;1.70;;;1.30;;
19645;SDS011;9971;52.446;13.452;2023-08-08T11:07:59;1.47;;;1.35;;
19645;SDS011;9971;52.446;13.452;2023-08-08T11:13:01;2.90;;;1.60;;
19645;SDS011;9971;52.446;13.452;2023-08-08T11:18:03;2.33;;;1.47;;
19645;SDS011;9971;52.446;13.452;2023-08-08T11:23:05;1.87;;;1.27;;
19645;SDS011;9971;52.446;13.452;2023-08-08T11:28:08;1.45;;;1.35;;
19645;SDS011;9971;52.446;13.452;2023-08-08T11:33:09;2.70;;;1.50;;
19645;SDS011;9971;52.446;13.452;2023-08-08T11:38:11;2.87;;;1.82;;
19645;SDS011;9971;52.446;13.452;2023-08-08T11:43:14;1.22;;;1.12;;
19645;SDS011;9971;52.446;13.452;2023-08-08T11:48:20;1.27;;;1.17;;
19645;SDS011;9971;52.446;13.452;2023-08-08T11:53:19;1.23;;;1.23;;
19645;SDS011;9971;52.446;13.452;2023-08-08T11:58:23;1.35;;;1.25;;
19645;SDS011;9971;52.446;13.452;2023-08-08T12:03:25;2.40;;;1.70;;
19645;SDS011;9971;52.446;13.452;2023-08-08T12:08:25;2.80;;;1.87;;
19645;SDS011;9971;52.446;13.452;2023-08-08T12:13:28;1.42;;;1.30;;
19645;SDS011;9971;52.446;13.452;2023-08-08T12:18:30;1.40;;;1.30;;
19645;SDS011;9971;52.446;13.452;2023-08-08T12:23:32;1.60;;;1.32;;
19645;SDS011;9971;52.446;13.452;2023-08-08T12:28:34;2.40;;;1.40;;
19645;SDS011;9971;52.446;13.452;2023-08-08T12:33:37;1.62;;;1.52;;
19645;SDS011;9971;52.446;13.452;2023-08-08T12:38:39;2.80;;;1.47;;
19645;SDS011;9971;52.446;13.452;2023-08-08T12:43:41;2.33;;;1.60;;
19645;SDS011;9971;52.446;13.452;2023-08-08T12:48:44;1.32;;;1.22;;
19645;SDS011;9971;52.446;13.452;2023-08-08T12:53:50;2.10;;;1.53;;
19645;SDS011;9971;52.446;13.452;2023-08-08T12:58:53;1.85;;;1.30;;
19645;SDS011;9971;52.446;13.452;2023-08-08T13:03:55;2.60;;;1.87;;
19645;SDS011;9971;52.446;13.452;2023-08-08T13:08:58;2.33;;;1.60;;
19645;SDS011;9971;52.446;13.452;2023-08-08T13:14:00;1.50;;;1.40;;
19645;SDS011;9971;52.446;13.452;2023-08-08T13:19:03;1.85;;;1.20;;
19645;SDS011;9971;52.446;13.452;2023-08-08T13:24:05;1.40;;;1.20;;
19645;SDS011;9971;52.446;13.452;2023-08-08T13:29:07;1.45;;;1.30;;
19645;SDS011;9971;52.446;13.452;2023-08-08T13:34:10;1.98;;;1.40;;
19645;SDS011;9971;52.446;13.452;2023-08-08T13:39:12;2.77;;;1.35;;
19645;SDS011;9971;52.446;13.452;2023-08-08T13:44:15;2.37;;;1.50;;
19645;SDS011;9971;52.446;13.452;2023-08-08T13:49:17;2.05;;;1.30;;
19645;SDS011;9971;52.446;13.452;2023-08-08T13:54:19;1.13;;;0.97;;
19645;SDS011;9971;52.446;13.452;2023-08-08T13:59:21;1.53;;;1.10;;
19645;SDS011;9971;52.446;13.452;2023-08-08T14:04:24;0.93;;;0.88;;
19645;SDS011;9971;52.446;13.452;2023-08-08T14:09:26;1.87;;;1.00;;
19645;SDS011;9971;52.446;13.452;2023-08-08T14:14:29;1.03;;;0.90;;
19645;SDS011;9971;52.446;13.452;2023-08-08T14:19:31;2.33;;;1.25;;
19645;SDS011;9971;52.446;13.452;2023-08-08T14:24:34;1.17;;;1.00;;
19645;SDS011;9971;52.446;13.452;2023-08-08T14:29:36;1.20;;;0.85;;
19645;SDS011;9971;52.446;13.452;2023-08-08T14:34:39;1.50;;;1.40;;
19645;SDS011;9971;52.446;13.452;2023-08-08T14:39:41;4.57;;;2.17;;
19645;SDS011;9971;52.446;13.452;2023-08-08T14:44:43;3.77;;;1.32;;
19645;SDS011;9971;52.446;13.452;2023-08-08T14:49:46;1.05;;;0.98;;
19645;SDS011;9971;52.446;13.452;2023-08-08T14:54:48;1.37;;;1.23;;
19645;SDS011;9971;52.446;13.452;2023-08-08T14:59:50;2.58;;;1.05;;
19645;SDS011;9971;52.446;13.452;2023-08-08T15:04:53;1.63;;;1.53;;
19645;SDS011;9971;52.446;13.452;2023-08-08T15:09:55;1.30;;;1.20;;
19645;SDS011;9971;52.446;13.452;2023-08-08T15:14:58;1.55;;;1.35;;
19645;SDS011;9971;52.446;13.452;2023-08-08T15:20:01;2.52;;;1.70;;
19645;SDS011;9971;52.446;13.452;2023-08-08T15:25:04;1.77;;;1.53;;
19645;SDS011;9971;52.446;13.452;2023-08-08T15:30:10;2.25;;;1.45;;
19645;SDS011;9971;52.446;13.452;2023-08-08T15:35:13;1.92;;;1.52;;
19645;SDS011;9971;52.446;13.452;2023-08-08T15:40:16;3.02;;;1.98;;
19645;SDS011;9971;52.446;13.452;2023-08-08T15:45:20;1.52;;;1.42;;
19645;SDS011;9971;52.446;13.452;2023-08-08T15:50:22;2.00;;;1.40;;
19645;SDS011;9971;52.446;13.452;2023-08-08T15:55:25;1.57;;;0.90;;
19645;SDS011;9971;52.446;13.452;2023-08-08T16:00:27;1.42;;;1.00;;
19645;SDS011;9971;52.446;13.452;2023-08-08T16:05:29;1.25;;;0.95;;
19645;SDS011;9971;52.446;13.452;2023-08-08T16:10:32;1.77;;;1.00;;
19645;SDS011;9971;52.446;13.452;2023-08-08T16:15:34;1.87;;;1.17;;
19645;SDS011;9971;52.446;13.452;2023-08-08T16:20:36;2.30;;;1.30;;
19645;SDS011;9971;52.446;13.452;2023-08-08T16:25:39;1.82;;;1.07;;
19645;SDS011;9971;52.446;13.452;2023-08-08T16:30:41;1.30;;;1.20;;
19645;SDS011;9971;52.446;13.452;2023-08-08T16:35:44;2.10;;;0.98;;
19645;SDS011;9971;52.446;13.452;2023-08-08T16:40:46;1.20;;;1.10;;
19645;SDS011;9971;52.446;13.452;2023-08-08T16:45:49;0.98;;;0.93;;
19645;SDS011;9971;52.446;13.452;2023-08-08T16:50:51;2.12;;;1.05;;
19645;SDS011;9971;52.446;13.452;2023-08-08T16:55:53;1.35;;;0.90;;
19645;SDS011;9971;52.446;13.452;2023-08-08T17:00:56;2.10;;;1.45;;
19645;SDS011;9971;52.446;13.452;2023-08-08T17:05:58;1.20;;;1.00;;
19645;SDS011;9971;52.446;13.452;2023-08-08T17:11:00;1.40;;;1.00;;
19645;SDS011;9971;52.446;13.452;2023-08-08T17:16:03;0.90;;;0.90;;
19645;SDS011;9971;52.446;13.452;2023-08-08T17:21:05;1.55;;;1.02;;
19645;SDS011;9971;52.446;13.452;2023-08-08T17:26:07;1.75;;;1.20;;
19645;SDS011;9971;52.446;13.452;2023-08-08T17:31:10;1.72;;;0.75;;
19645;SDS011;9971;52.446;13.452;2023-08-08T17:36:12;1.93;;;1.23;;
19645;SDS011;9971;52.446;13.452;2023-08-08T17:41:15;2.30;;;1.17;;
19645;SDS011;9971;52.446;13.452;2023-08-08T17:46:17;1.77;;;1.10;;
19645;SDS011;9971;52.446;13.452;2023-08-08T17:51:20;1.27;;;1.15;;
19645;SDS011;9971;52.446;13.452;2023-08-08T17:56:22;2.30;;;1.00;;
19645;SDS011;9971;52.446;13.452;2023-08-08T18:01:25;2.70;;;1.07;;
19645;SDS011;9971;52.446;13.452;2023-08-08T18:06:27;1.02;;;0.98;;
19645;SDS011;9971;52.446;13.452;2023-08-08T18:11:29;1.40;;;1.10;;
19645;SDS011;9971;52.446;13.452;2023-08-08T18:16:31;1.27;;;1.17;;
19645;SDS011;9971;52.446;13.452;2023-08-08T18:21:33;1.80;;;1.30;;
19645;SDS011;9971;52.446;13.452;2023-08-08T18:26:36;2.22;;;1.30;;
19645;SDS011;9971;52.446;13.452;2023-08-08T18:31:38;1.47;;;0.98;;
19645;SDS011;9971;52.446;13.452;2023-08-08T18:36:41;1.35;;;1.05;;
19645;SDS011;9971;52.446;13.452;2023-08-08T18:41:43;1.25;;;1.00;;
19645;SDS011;9971;52.446;13.452;2023-08-08T18:46:46;2.02;;;0.98;;
19645;SDS011;9971;52.446;13.452;2023-08-08T18:51:48;0.90;;;0.90;;
19645;SDS011;9971;52.446;13.452;2023-08-08T18:56:50;1.62;;;1.12;;
19645;SDS011;9971;52.446;13.452;2023-08-08T19:01:53;0.88;;;0.88;;
19645;SDS011;9971;52.446;13.452;2023-08-08T19:06:55;2.15;;;1.30;;
19645;SDS011;9971;52.446;13.452;2023-08-08T19:11:58;1.47;;;1.17;;
19645;SDS011;9971;52.446;13.452;2023-08-08T19:17:00;1.65;;;1.12;;
19645;SDS011;9971;52.446;13.452;2023-08-08T19:22:02;1.65;;;1.37;;
19645;SDS011;9971;52.446;13.452;2023-08-08T19:27:05;1.52;;;1.30;;
19645;SDS011;9971;52.446;13.452;2023-08-08T19:32:07;2.08;;;1.55;;
19645;SDS011;9971;52.446;13.452;2023-08-08T19:37:09;1.62;;;1.52;;
19645;SDS011;9971;52.446;13.452;2023-08-08T19:42:12;2.73;;;1.60;;
19645;SDS011;9971;52.446;13.452;2023-08-08T19:47:14;3.70;;;1.90;;
19645;SDS011;9971;52.446;13.452;2023-08-08T19:52:16;3.80;;;1.72;;
19645;SDS011;9971;52.446;13.452;2023-08-08T19:57:19;2.55;;;1.65;;
19645;SDS011;9971;52.446;13.452;2023-08-08T20:02:21;2.70;;;1.55;;
19645;SDS011;9971;52.446;13.452;2023-08-08T20:07:23;1.77;;;1.67;;
19645;SDS011;9971;52.446;13.452;2023-08-08T20:12:26;1.62;;;1.52;;
19645;SDS011;9971;52.446;13.452;2023-08-08T20:17:29;2.77;;;1.60;;
19645;SDS011;9971;52.446;13.452;2023-08-08T20:22:31;1.90;;;1.80;;
19645;SDS011;9971;52.446;13.452;2023-08-08T20:27:33;2.00;;;1.73;;
19645;SDS011;9971;52.446;13.452;2023-08-08T20:32:36;2.15;;;1.55;;
19645;SDS011;9971;52.446;13.452;2023-08-08T20:37:38;3.90;;;2.20;;
19645;SDS011;9971;52.446;13.452;2023-08-08T20:42:41;2.10;;;1.90;;
19645;SDS011;9971;52.446;13.452;2023-08-08T20:47:43;1.70;;;1.60;;
19645;SDS011;9971;52.446;13.452;2023-08-08T20:52:46;2.07;;;1.97;;
19645;SDS011;9971;52.446;13.452;2023-08-08T20:57:47;2.13;;;1.90;;
19645;SDS011;9971;52.446;13.452;2023-08-08T21:02:50;4.20;;;1.90;;
19645;SDS011;9971;52.446;13.452;2023-08-08T21:07:52;2.72;;;2.22;;
19645;SDS011;9971;52.446;13.452;2023-08-08T21:12:55;2.10;;;1.90;;
19645;SDS011;9971;52.446;13.452;2023-08-08T21:17:57;2.22;;;1.85;;
19645;SDS011;9971;52.446;13.452;2023-08-08T21:23:00;1.90;;;1.80;;
19645;SDS011;9971;52.446;13.452;2023-08-08T21:28:02;2.42;;;2.20;;
19645;SDS011;9971;52.446;13.452;2023-08-08T21:33:05;2.25;;;1.60;;
19645;SDS011;9971;52.446;13.452;2023-08-08T21:38:07;1.82;;;1.60;;
19645;SDS011;9971;52.446;13.452;2023-08-08T21:43:10;2.37;;;1.55;;
19645;SDS011;9971;52.446;13.452;2023-08-08T21:48:12;3.10;;;1.73;;
19645;SDS011;9971;52.446;13.452;2023-08-08T21:53:15;2.30;;;1.82;;
19645;SDS011;9971;52.446;13.452;2023-08-08T21:58:17;2.12;;;1.50;;
19645;SDS011;9971;52.446;13.452;2023-08-08T22:03:20;1.70;;;1.60;;
19645;SDS011;9971;52.446;13.452;2023-08-08T22:08:22;2.70;;;2.00;;
19645;SDS011;9971;52.446;13.452;2023-08-08T22:13:25;2.37;;;1.90;;
19645;SDS011;9971;52.446;13.452;2023-08-08T22:18:27;2.53;;;2.10;;
19645;SDS011;9971;52.446;13.452;2023-08-08T22:23:29;4.08;;;3.20;;
19645;SDS011;9971;52.446;13.452;2023-08-08T22:28:32;2.22;;;1.90;;
19645;SDS011;9971;52.446;13.452;2023-08-08T22:33:34;2.07;;;1.73;;
19645;SDS011;9971;52.446;13.452;2023-08-08T22:38:37;2.20;;;1.82;;
19645;SDS011;9971;52.446;13.452;2023-08-08T22:43:38;2.30;;;1.63;;
19645;SDS011;9971;52.446;13.452;2023-08-08T22:48:41;1.60;;;1.50;;
19645;SDS011;9971;52.446;13.452;2023-08-08T22:53:43;2.60;;;1.82;;
19645;SDS011;9971;52.446;13.452;2023-08-08T22:58:46;1.82;;;1.42;;
19645;SDS011;9971;52.446;13.452;2023-08-08T23:03:49;1.77;;;1.42;;
19645;SDS011;9971;52.446;13.452;2023-08-08T23:08:51;1.75;;;1.40;;
19645;SDS011;9971;52.446;13.452;2023-08-08T23:13:54;1.67;;;1.52;;
19645;SDS011;9971;52.446;13.452;2023-08-08T23:18:56;4.53;;;1.75;;
19645;SDS011;9971;52.446;13.452;2023-08-08T23:24:00;1.60;;;1.50;;
19645;SDS011;9971;52.446;13.452;2023-08-08T23:29:02;1.60;;;1.50;;
19645;SDS011;9971;52.446;13.452;2023-08-08T23:34:04;1.73;;;1.20;;
19645;SDS011;9971;52.446;13.452;2023-08-08T23:39:07;1.75;;;1.55;;
19645;SDS011;9971;52.446;13.452;2023-08-08T23:44:09;1.52;;;1.37;;
19645;SDS011;9971;52.446;13.452;2023-08-08T23:49:11;2.00;;;1.50;;
19645;SDS011;9971;52.446;13.452;2023-08-08T23:54:14;2.20;;;1.70;;
19645;SDS011;9971;52.446;13.452;2023-08-08T23:59:16;1.32;;;1.22;;
